Time;durP1;ratioP1;P1;durP2;ratioP2;P2;SDS_P1;SDS_P2;PMS_P1;PMS_P2;Temp;Humidity;BMP_temperature;BMP_pressure;BME280_temperature;BME280_humidity;BME280_pressure;Samples;Min_cycle;Max_cycle;Signal;HPM_P1;HPM_P2
2023/06/22 00:01:01;;;;;;;9.63;6.60;;;;;;;26.20;65.36;100388.66;5082686;28;20182;-61
2023/06/22 00:03:26;;;;;;;10.07;6.77;;;;;;;26.18;65.52;100438.28;5070123;28;20182;-60
2023/06/22 00:05:52;;;;;;;9.50;6.97;;;;;;;26.16;65.73;100428.41;5070062;28;20570;-60
2023/06/22 00:08:18;;;;;;;8.40;6.17;;;;;;;26.12;66.08;100315.56;5069007;28;20199;-60
2023/06/22 00:10:43;;;;;;;10.03;7.10;;;;;;;26.10;66.41;100161.78;5053361;28;20194;-60
2023/06/22 00:13:09;;;;;;;9.53;6.73;;;;;;;26.10;65.82;100153.09;5068727;28;20164;-60
2023/06/22 00:15:35;;;;;;;7.53;6.40;;;;;;;26.12;65.53;100207.66;5053094;28;20221;-60
2023/06/22 00:18:00;;;;;;;9.00;6.60;;;;;;;26.14;66.05;100239.91;5050695;28;20187;-60
2023/06/22 00:20:29;;;;;;;10.30;6.60;;;;;;;26.15;65.78;100227.84;5070306;28;20182;-60
2023/06/22 00:22:59;;;;;;;11.20;6.73;;;;;;;26.15;66.07;100189.44;5088166;28;20254;-60
2023/06/22 00:25:24;;;;;;;9.50;6.47;;;;;;;26.16;65.81;100202.63;5070973;28;20974;-60
2023/06/22 00:27:49;;;;;;;10.13;5.80;;;;;;;26.15;66.01;100207.59;5077509;28;20452;-60
2023/06/22 00:30:18;;;;;;;9.97;6.10;;;;;;;26.15;65.83;100213.38;5069106;28;20351;-60
2023/06/22 00:32:44;;;;;;;9.20;6.70;;;;;;;26.14;66.20;100214.66;5069045;28;20190;-60
2023/06/22 00:35:10;;;;;;;7.93;6.37;;;;;;;26.14;65.83;100217.53;5081915;28;20413;-60
2023/06/22 00:37:36;;;;;;;11.00;6.40;;;;;;;26.15;66.60;100224.16;5071728;28;20175;-60
2023/06/22 00:40:02;;;;;;;8.13;5.60;;;;;;;26.14;66.43;100223.34;5067972;28;20463;-60
2023/06/22 00:42:28;;;;;;;7.67;5.87;;;;;;;26.15;66.10;100224.16;5077176;28;20458;-60
2023/06/22 00:44:53;;;;;;;8.10;6.20;;;;;;;26.16;66.33;100228.69;5088486;28;20468;-60
2023/06/22 00:47:19;;;;;;;8.30;6.23;;;;;;;26.14;65.76;100214.66;5087152;28;20227;-60
2023/06/22 00:49:46;;;;;;;7.87;5.87;;;;;;;26.14;65.69;100211.75;5075773;28;20511;-60
2023/06/22 00:52:20;;;;;;;7.57;5.70;;;;;;;26.15;65.64;100212.59;5088883;28;20269;-60
2023/06/22 00:54:48;;;;;;;8.47;6.00;;;;;;;26.15;65.89;100207.59;5077472;28;20460;-60
2023/06/22 00:57:17;;;;;;;7.80;5.90;;;;;;;26.14;66.05;100199.38;5067405;28;20417;-60
2023/06/22 00:59:43;;;;;;;7.63;5.47;;;;;;;26.13;65.95;100192.75;5067564;28;20461;-60
2023/06/22 01:02:09;;;;;;;8.10;6.30;;;;;;;26.14;66.15;100203.06;5052801;28;20444;-60
2023/06/22 01:04:35;;;;;;;10.53;6.47;;;;;;;26.12;66.30;100205.59;5050776;28;20858;-60
2023/06/22 01:07:38;;;;;;;8.40;5.80;;;;;;;26.13;65.54;100209.28;5068416;28;20530;-61
2023/06/22 01:10:37;;;;;;;8.77;5.53;;;;;;;26.12;65.74;100211.38;5077410;28;20927;-60
2023/06/22 01:13:06;;;;;;;8.00;6.03;;;;;;;26.13;66.15;100223.75;5088775;28;20424;-60
2023/06/22 01:15:35;;;;;;;7.03;5.80;;;;;;;26.13;65.65;100215.91;5044202;28;20451;-60
2023/06/22 01:18:00;;;;;;;9.07;6.60;;;;;;;26.12;66.24;100208.50;5036985;28;20436;-60
2023/06/22 01:20:27;;;;;;;7.70;6.07;;;;;;;26.12;65.56;100220.06;5080045;28;20433;-60
2023/06/22 01:23:29;;;;;;;8.43;5.77;;;;;;;26.12;66.03;100219.22;5067889;28;20539;-61
2023/06/22 01:26:16;;;;;;;8.20;5.80;;;;;;;26.12;66.13;100214.28;5071197;28;20446;-60
2023/06/22 01:28:52;;;;;;;7.33;5.97;;;;;;;26.11;65.37;100206.03;5050211;28;20482;-60
2023/06/22 01:31:22;;;;;;;9.60;5.90;;;;;;;26.10;65.77;100208.09;5034663;28;20401;-60
2023/06/22 01:33:55;;;;;;;6.87;5.20;;;;;;;26.10;65.25;100205.19;5050463;28;20421;-59
2023/06/22 01:36:21;;;;;;;7.50;5.40;;;;;;;26.09;65.91;100203.56;5036753;28;20449;-61
2023/06/22 01:38:47;;;;;;;10.13;6.00;;;;;;;26.09;65.41;100197.78;5056938;28;20404;-61
2023/06/22 01:41:12;;;;;;;8.17;5.70;;;;;;;26.10;65.45;100204.38;5086519;28;20706;-60
2023/06/22 01:43:38;;;;;;;7.47;5.27;;;;;;;26.10;65.84;100208.09;5086257;28;20216;-60
2023/06/22 01:46:03;;;;;;;7.30;5.73;;;;;;;26.10;66.09;100196.50;5060252;28;20179;-60
2023/06/22 01:48:29;;;;;;;10.67;6.10;;;;;;;26.09;65.76;100194.88;5067270;28;20210;-60
2023/06/22 01:50:55;;;;;;;7.27;5.60;;;;;;;26.09;65.54;100200.66;5052973;28;20498;-60
2023/06/22 01:53:21;;;;;;;8.43;5.90;;;;;;;26.09;65.66;100194.06;5084478;28;20885;-60
2023/06/22 01:55:47;;;;;;;7.97;5.63;;;;;;;26.08;65.87;100201.91;5082449;28;20699;-59
2023/06/22 01:58:12;;;;;;;8.23;5.73;;;;;;;26.08;65.53;100201.09;5087939;28;20435;-60
2023/06/22 02:00:38;;;;;;;9.40;6.10;;;;;;;26.07;65.87;100194.50;5087505;28;20261;-60
2023/06/22 02:03:08;;;;;;;9.40;5.50;;;;;;;26.07;65.33;100199.47;5063860;28;20662;-60
2023/06/22 02:05:37;;;;;;;7.67;5.80;;;;;;;26.07;65.27;100194.50;5077203;28;21455;-60
2023/06/22 02:08:17;;;;;;;8.23;6.60;;;;;;;26.07;65.95;100199.47;5087739;28;20416;-60
2023/06/22 02:10:43;;;;;;;7.03;5.50;;;;;;;26.07;65.35;100196.56;5072366;28;20507;-60
2023/06/22 02:13:09;;;;;;;10.90;5.67;;;;;;;26.07;65.82;100193.66;5033129;28;20501;-60
2023/06/22 02:15:34;;;;;;;9.37;4.93;;;;;;;26.05;66.15;100176.75;5038095;28;20182;-60
2023/06/22 02:18:00;;;;;;;7.57;5.47;;;;;;;26.05;65.43;100168.06;5067693;28;20182;-60
2023/06/22 02:20:25;;;;;;;6.43;4.90;;;;;;;26.04;65.74;100178.00;5069631;28;20174;-60
2023/06/22 02:22:51;;;;;;;7.30;5.80;;;;;;;26.05;65.88;100168.06;5080796;28;20684;-60
2023/06/22 02:25:16;;;;;;;9.10;5.77;;;;;;;26.04;65.80;100166.41;5087738;28;20198;-60
2023/06/22 02:27:41;;;;;;;7.03;5.60;;;;;;;26.05;65.25;100170.16;5085333;28;20182;-60
2023/06/22 02:30:09;;;;;;;10.13;6.33;;;;;;;26.04;65.35;100163.53;5067536;28;20208;-60
2023/06/22 02:32:34;;;;;;;8.87;5.40;;;;;;;26.04;65.77;100162.72;5067534;28;20178;-60
2023/06/22 02:35:03;;;;;;;7.43;5.67;;;;;;;26.03;65.67;100164.78;5035956;28;20429;-60
2023/06/22 02:37:29;;;;;;;13.50;6.20;;;;;;;26.03;65.82;100146.59;5071597;28;20285;-60
2023/06/22 02:39:55;;;;;;;6.87;4.80;;;;;;;26.03;65.44;100147.44;5083886;28;20416;-60
2023/06/22 02:42:21;;;;;;;7.80;5.70;;;;;;;26.04;66.00;100140.38;5090598;28;20170;-60
2023/06/22 02:44:47;;;;;;;6.63;4.93;;;;;;;26.03;65.83;100141.63;5078332;28;20329;-60
2023/06/22 02:47:12;;;;;;;7.53;6.17;;;;;;;26.03;65.39;100126.34;5090418;28;20455;-60
2023/06/22 02:49:37;;;;;;;7.93;5.37;;;;;;;26.02;65.97;100122.66;5089496;28;20155;-61
2023/06/22 02:52:03;;;;;;;8.30;5.77;;;;;;;26.03;65.96;100126.34;5089672;28;20532;-60
2023/06/22 02:54:29;;;;;;;8.00;5.50;;;;;;;26.02;66.00;100127.59;5077042;28;20684;-60
2023/06/22 02:56:54;;;;;;;7.80;5.53;;;;;;;26.02;65.43;100128.44;5074818;28;20193;-60
2023/06/22 02:59:23;;;;;;;7.50;5.40;;;;;;;26.01;65.95;100125.97;5090066;28;20221;-60
2023/06/22 03:01:49;;;;;;;7.87;5.40;;;;;;;26.01;65.97;100126.81;5083960;28;20193;-60
2023/06/22 03:04:15;;;;;;;8.00;5.50;;;;;;;26.01;65.54;100125.97;5078362;28;21237;-60
2023/06/22 03:06:41;;;;;;;8.70;5.80;;;;;;;26.01;65.30;100128.88;5070787;28;20441;-60
2023/06/22 03:09:06;;;;;;;6.90;5.40;;;;;;;26.01;65.90;100123.06;5071575;28;20186;-60
2023/06/22 03:11:32;;;;;;;7.43;5.40;;;;;;;25.99;65.48;100126.41;5089845;28;20178;-60
2023/06/22 03:13:58;;;;;;;6.43;5.03;;;;;;;26.00;65.27;100139.59;5090788;28;20173;-60
2023/06/22 03:16:23;;;;;;;6.50;5.07;;;;;;;26.00;65.63;100130.13;5089802;28;20432;-60
2023/06/22 03:18:49;;;;;;;7.67;5.27;;;;;;;25.99;65.77;100135.09;5089087;28;20197;-60
2023/06/22 03:21:15;;;;;;;8.00;5.30;;;;;;;25.99;65.37;100129.28;5091438;28;20174;-60
2023/06/22 03:23:41;;;;;;;7.43;5.60;;;;;;;25.99;66.04;100128.50;5090872;28;20617;-60
2023/06/22 03:26:06;;;;;;;7.50;5.40;;;;;;;25.99;65.60;100132.19;5091222;28;20506;-60
2023/06/22 03:28:32;;;;;;;8.20;5.30;;;;;;;25.99;65.51;100132.19;5078302;28;20195;-60
2023/06/22 03:30:57;;;;;;;6.50;5.70;;;;;;;25.99;65.81;100129.28;5071477;28;20191;-60
2023/06/22 03:33:23;;;;;;;7.13;5.63;;;;;;;25.99;65.63;100119.81;5073033;28;20193;-60
2023/06/22 03:35:49;;;;;;;7.17;5.40;;;;;;;25.99;66.04;100116.91;5069048;28;20244;-60
2023/06/22 03:38:15;;;;;;;8.20;5.10;;;;;;;25.98;65.64;100116.09;5080256;28;20190;-60
2023/06/22 03:40:40;;;;;;;10.40;5.43;;;;;;;25.98;65.91;100116.09;5078284;28;21050;-60
2023/06/22 03:43:06;;;;;;;8.90;5.77;;;;;;;25.98;66.07;100116.09;5087052;28;20213;-60
2023/06/22 03:45:31;;;;;;;7.27;5.07;;;;;;;25.98;65.27;100107.41;5066624;28;20732;-60
2023/06/22 03:47:57;;;;;;;10.70;5.80;;;;;;;25.97;65.77;100114.47;5090744;28;20162;-60
2023/06/22 03:50:22;;;;;;;7.83;6.03;;;;;;;25.97;65.45;100108.66;5086273;28;20186;-60
2023/06/22 03:52:48;;;;;;;7.63;5.97;;;;;;;25.97;65.17;100102.06;5070164;28;20163;-60
2023/06/22 03:55:13;;;;;;;7.70;5.27;;;;;;;25.97;65.18;100102.88;5070634;28;20156;-60
2023/06/22 03:57:39;;;;;;;7.83;5.73;;;;;;;25.97;65.29;100097.09;5088714;28;20186;-60
2023/06/22 04:00:07;;;;;;;7.60;5.97;;;;;;;25.96;65.67;100094.63;5090357;28;20241;-60
2023/06/22 04:02:33;;;;;;;6.40;5.00;;;;;;;25.97;65.92;100102.06;5089977;28;20571;-60
2023/06/22 04:04:58;;;;;;;7.40;5.53;;;;;;;25.96;65.59;100100.41;5088134;28;20471;-60
2023/06/22 04:07:24;;;;;;;7.87;5.40;;;;;;;25.96;65.40;100101.25;5071777;28;20267;-61
2023/06/22 04:09:49;;;;;;;7.67;5.20;;;;;;;25.96;65.15;100094.63;5088733;28;20219;-61
2023/06/22 04:12:15;;;;;;;7.40;5.17;;;;;;;25.96;65.76;100098.34;5053562;28;20190;-60
2023/06/22 04:14:40;;;;;;;6.70;5.30;;;;;;;25.96;65.64;100088.84;5070329;28;20163;-60
2023/06/22 04:17:05;;;;;;;6.60;5.10;;;;;;;25.95;65.36;100096.69;5089790;28;20178;-60
2023/06/22 04:19:31;;;;;;;5.80;4.87;;;;;;;25.96;65.74;100100.41;5087293;28;20194;-60
2023/06/22 04:21:56;;;;;;;9.17;5.60;;;;;;;25.96;65.65;100089.69;5086163;28;20231;-60
2023/06/22 04:24:22;;;;;;;7.03;5.63;;;;;;;25.96;65.26;100083.06;5088340;28;20256;-60
2023/06/22 04:26:47;;;;;;;6.57;4.93;;;;;;;25.96;65.40;100080.16;5087332;28;20194;-60
2023/06/22 04:29:13;;;;;;;7.97;5.13;;;;;;;25.95;65.33;100076.44;5089577;28;20159;-60
2023/06/22 04:31:38;;;;;;;8.40;5.00;;;;;;;25.94;65.64;100069.03;5079454;28;20281;-60
2023/06/22 04:34:07;;;;;;;10.23;5.13;;;;;;;25.95;65.82;100070.66;5069559;28;20179;-60
2023/06/22 04:36:37;;;;;;;7.70;5.27;;;;;;;25.95;65.82;100076.44;5070080;28;20191;-60
2023/06/22 04:39:09;;;;;;;10.13;5.40;;;;;;;25.96;65.45;100072.31;5088979;28;20431;-60
2023/06/22 04:41:44;;;;;;;8.67;5.80;;;;;;;25.96;65.30;100075.22;5089155;28;20419;-60
2023/06/22 04:44:25;;;;;;;9.60;5.17;;;;;;;25.97;65.62;100067.34;5067121;28;20472;-60
2023/06/22 04:46:54;;;;;;;10.60;5.63;;;;;;;25.99;65.68;100073.53;5087338;28;20435;-60
2023/06/22 04:49:20;;;;;;;9.97;6.43;;;;;;;25.98;65.16;100069.78;5089226;28;20428;-60
2023/06/22 04:51:46;;;;;;;11.77;6.47;;;;;;;25.99;65.15;100061.94;5085194;28;20904;-60
2023/06/22 04:54:11;;;;;;;6.30;5.10;;;;;;;25.98;65.80;100068.97;5089040;28;20513;-60
2023/06/22 04:56:36;;;;;;;8.70;5.73;;;;;;;25.99;65.50;100077.22;5087143;28;20187;-60
2023/06/22 04:59:03;;;;;;;7.30;5.40;;;;;;;25.98;66.03;100075.59;5050200;28;20227;-60
2023/06/22 05:01:28;;;;;;;8.07;5.43;;;;;;;25.99;65.61;100077.22;5078176;28;20265;-60
2023/06/22 05:03:55;;;;;;;8.17;4.83;;;;;;;25.98;66.04;100066.06;5070592;28;20900;-60
2023/06/22 05:06:24;;;;;;;8.30;5.90;;;;;;;25.98;65.98;100060.28;5088928;28;20222;-60
2023/06/22 05:08:58;;;;;;;14.43;5.47;;;;;;;25.97;65.86;100065.28;5071198;28;20420;-60
2023/06/22 05:11:27;;;;;;;8.93;5.63;;;;;;;25.99;66.18;100056.16;5073850;28;20443;-60
2023/06/22 05:13:52;;;;;;;7.03;5.10;;;;;;;26.00;65.61;100057.78;5069011;28;20437;-60
2023/06/22 05:16:23;;;;;;;10.47;5.37;;;;;;;26.00;66.13;100058.59;5081931;28;20448;-60
2023/06/22 05:18:49;;;;;;;8.00;5.80;;;;;;;25.99;66.80;100051.16;5086394;28;20228;-61
2023/06/22 05:21:15;;;;;;;6.63;5.17;;;;;;;26.00;66.50;100054.91;5079943;28;20438;-60
2023/06/22 05:23:40;;;;;;;7.20;5.67;;;;;;;26.01;66.94;100048.69;5083302;28;20424;-60
2023/06/22 05:26:09;;;;;;;9.07;5.00;;;;;;;26.02;66.59;100047.41;5078404;28;20559;-60
2023/06/22 05:28:34;;;;;;;10.10;6.10;;;;;;;26.03;66.76;100039.53;5078105;28;20696;-60
2023/06/22 05:31:00;;;;;;;8.80;5.30;;;;;;;26.04;66.89;100044.09;5078572;28;20432;-60
2023/06/22 05:33:25;;;;;;;7.73;5.60;;;;;;;26.02;66.81;100047.41;5071030;28;20170;-60
2023/06/22 05:35:50;;;;;;;7.13;5.43;;;;;;;26.03;66.28;100051.09;5077448;28;20186;-59
2023/06/22 05:38:16;;;;;;;8.10;4.90;;;;;;;26.00;66.41;100055.69;5087733;28;20594;-60
2023/06/22 05:40:41;;;;;;;9.63;6.40;;;;;;;26.01;66.39;100053.63;5079447;28;20166;-60
2023/06/22 05:43:07;;;;;;;10.70;6.20;;;;;;;26.00;65.92;100055.69;5082989;28;20178;-60
2023/06/22 05:45:32;;;;;;;7.10;5.53;;;;;;;26.01;66.33;100062.31;5087872;28;20206;-60
2023/06/22 05:47:58;;;;;;;7.43;6.07;;;;;;;26.00;66.07;100061.47;5087939;28;20637;-60
2023/06/22 05:50:23;;;;;;;7.70;5.47;;;;;;;26.01;66.01;100066.03;5086407;28;20206;-60
2023/06/22 05:52:48;;;;;;;8.10;5.47;;;;;;;26.02;65.92;100056.09;5087559;28;20177;-60
2023/06/22 05:55:15;;;;;;;8.97;5.43;;;;;;;26.04;65.59;100061.44;5080722;28;20298;-60
2023/06/22 05:57:40;;;;;;;7.53;6.00;;;;;;;26.04;65.67;100061.44;5067572;28;20179;-60
2023/06/22 06:00:10;;;;;;;7.80;5.40;;;;;;;26.05;65.40;100061.00;5073696;28;20527;-60
2023/06/22 06:02:35;;;;;;;8.47;5.60;;;;;;;26.06;66.07;100059.75;5083050;28;20179;-60
2023/06/22 06:05:02;;;;;;;9.30;5.83;;;;;;;26.07;66.19;100067.19;5080727;28;20525;-60
2023/06/22 06:07:28;;;;;;;6.73;5.27;;;;;;;26.10;65.65;100072.06;5080270;28;20626;-60
2023/06/22 06:09:53;;;;;;;8.80;5.90;;;;;;;26.10;66.03;100068.38;5080319;28;20427;-60
2023/06/22 06:12:18;;;;;;;10.80;5.40;;;;;;;26.11;66.03;100067.13;5074867;28;20181;-60
2023/06/22 06:14:44;;;;;;;6.80;5.47;;;;;;;26.11;65.75;100062.16;5081685;28;20187;-60
2023/06/22 06:17:09;;;;;;;8.30;5.40;;;;;;;26.13;65.34;100067.47;5077633;28;20222;-60
2023/06/22 06:19:35;;;;;;;10.83;5.40;;;;;;;26.11;66.35;100067.13;5083403;28;20182;-60
2023/06/22 06:22:00;;;;;;;8.10;5.03;;;;;;;26.10;66.06;100068.38;5049586;28;20178;-60
2023/06/22 06:24:26;;;;;;;7.40;5.43;;;;;;;26.09;66.01;100066.75;5074753;28;20237;-60
2023/06/22 06:26:51;;;;;;;8.07;5.20;;;;;;;26.08;66.74;100065.09;5083133;28;20261;-60
2023/06/22 06:29:17;;;;;;;7.63;5.83;;;;;;;26.06;66.87;100059.75;5081619;28;20556;-60
2023/06/22 06:31:42;;;;;;;7.83;5.73;;;;;;;26.06;66.28;100051.06;5076780;28;20197;-60
2023/06/22 06:34:08;;;;;;;8.60;6.00;;;;;;;26.06;66.54;100053.97;5086830;28;20283;-59
2023/06/22 06:36:34;;;;;;;6.73;4.80;;;;;;;26.04;66.37;100056.47;5081899;28;20563;-61
2023/06/22 06:39:00;;;;;;;8.10;6.37;;;;;;;26.17;67.43;100059.56;5080576;28;20230;-60
2023/06/22 06:41:25;;;;;;;13.10;7.03;;;;;;;26.34;67.50;100065.03;5051919;28;20442;-60
2023/06/22 06:43:51;;;;;;;18.70;11.00;;;;;;;26.74;69.01;100066.03;5051169;28;20844;-59
2023/06/22 06:46:18;;;;;;;22.27;10.27;;;;;;;26.62;69.09;100063.75;5081573;28;20214;-60
2023/06/22 06:48:44;;;;;;;11.30;7.97;;;;;;;26.41;67.10;100070.75;5082746;28;20456;-60
2023/06/22 06:51:09;;;;;;;15.63;8.20;;;;;;;26.39;68.79;100060.84;5079663;28;20897;-60
2023/06/22 06:53:37;;;;;;;18.63;8.30;;;;;;;26.38;68.55;100062.91;5070133;28;20329;-59
2023/06/22 06:56:03;;;;;;;11.50;6.47;;;;;;;26.39;68.29;100058.75;5073631;28;20194;-60
2023/06/22 06:58:28;;;;;;;12.93;7.30;;;;;;;26.36;68.15;100064.63;5066851;28;20437;-60
2023/06/22 07:00:54;;;;;;;17.50;7.63;;;;;;;26.34;68.32;100065.03;5069586;28;20799;-59
2023/06/22 07:03:19;;;;;;;13.43;7.13;;;;;;;26.33;67.97;100057.63;5076570;28;20219;-60
2023/06/22 07:05:45;;;;;;;14.33;8.00;;;;;;;26.35;67.81;100060.09;5052061;28;20211;-60
2023/06/22 07:08:10;;;;;;;15.10;8.17;;;;;;;26.35;68.02;100060.09;5064147;28;20198;-59
2023/06/22 07:10:35;;;;;;;12.50;7.93;;;;;;;26.32;69.00;100055.16;5087005;28;20185;-60
2023/06/22 07:13:01;;;;;;;10.03;6.77;;;;;;;26.32;68.75;100060.97;5081834;28;20240;-60
2023/06/22 07:15:27;;;;;;;11.73;8.00;;;;;;;26.30;68.11;100055.59;5070672;28;20182;-60
2023/06/22 07:17:52;;;;;;;8.47;7.10;;;;;;;26.29;67.41;100039.50;5086836;28;20175;-59
2023/06/22 07:20:19;;;;;;;17.27;6.70;;;;;;;26.29;67.74;100053.16;5078863;28;20190;-60
2023/06/22 07:22:44;;;;;;;11.40;7.50;;;;;;;26.31;67.63;100070.91;5071187;28;20547;-60
2023/06/22 07:25:10;;;;;;;16.37;7.40;;;;;;;26.30;68.11;100067.19;5077350;28;20465;-60
2023/06/22 07:27:42;;;;;;;12.53;7.30;;;;;;;26.32;67.82;100066.75;5070505;28;20191;-60
2023/06/22 07:30:08;;;;;;;9.20;6.67;;;;;;;26.38;68.71;100071.59;5072698;28;20279;-59
2023/06/22 07:32:34;;;;;;;12.73;7.87;;;;;;;26.39;68.93;100066.66;5073102;28;20547;-60
2023/06/22 07:34:59;;;;;;;14.43;7.43;;;;;;;26.39;69.90;100073.22;5070375;28;20459;-60
2023/06/22 07:37:27;;;;;;;9.70;6.80;;;;;;;26.40;70.00;100080.66;5079404;28;20206;-60
2023/06/22 07:39:53;;;;;;;12.93;8.00;;;;;;;26.38;68.88;100082.34;5073422;28;20189;-59
2023/06/22 07:42:19;;;;;;;13.63;7.23;;;;;;;26.34;68.71;100085.31;5086445;28;20417;-60
2023/06/22 07:44:44;;;;;;;8.60;6.40;;;;;;;26.33;68.20;100075.00;5073338;28;20783;-59
2023/06/22 07:47:10;;;;;;;12.20;7.30;;;;;;;26.30;68.20;100093.22;5074823;28;20606;-60
2023/06/22 07:49:35;;;;;;;15.50;7.67;;;;;;;26.31;68.46;100100.69;5076646;28;20216;-60
2023/06/22 07:52:01;;;;;;;8.03;5.90;;;;;;;26.29;68.50;100108.97;5087053;28;20182;-60
2023/06/22 07:54:27;;;;;;;10.57;7.37;;;;;;;26.31;67.73;100128.81;5073175;28;20174;-60
2023/06/22 07:56:52;;;;;;;10.77;6.67;;;;;;;26.30;67.91;100138.75;5090215;28;20432;-60
2023/06/22 07:59:18;;;;;;;12.57;7.13;;;;;;;26.28;67.71;100129.66;5082875;28;20218;-60
2023/06/22 08:01:44;;;;;;;11.13;7.23;;;;;;;26.29;67.73;100120.56;5076911;28;20275;-60
2023/06/22 08:04:10;;;;;;;11.80;7.27;;;;;;;26.30;67.74;100127.97;5078569;28;20956;-60
2023/06/22 08:06:35;;;;;;;8.67;6.87;;;;;;;26.31;68.29;100123.84;5086476;28;20570;-59
2023/06/22 08:09:00;;;;;;;10.23;6.77;;;;;;;26.32;67.98;100125.47;5088831;28;20642;-60
2023/06/22 08:11:26;;;;;;;9.83;6.70;;;;;;;26.33;67.44;100103.94;5080997;28;20183;-60
2023/06/22 08:13:52;;;;;;;12.77;7.20;;;;;;;26.35;67.52;100095.63;5086123;28;20182;-60
2023/06/22 08:16:17;;;;;;;9.73;6.73;;;;;;;26.35;68.03;100095.63;5066722;28;20265;-60
2023/06/22 08:18:43;;;;;;;13.43;7.23;;;;;;;26.35;68.11;100084.06;5068982;28;20229;-60
2023/06/22 08:21:08;;;;;;;10.67;6.57;;;;;;;26.34;67.70;100094.00;5083788;28;20186;-60
2023/06/22 08:23:34;;;;;;;13.13;6.17;;;;;;;26.33;67.79;100097.31;5076634;28;20897;-61
2023/06/22 08:26:00;;;;;;;10.60;6.33;;;;;;;26.33;67.45;100086.59;5068206;28;20198;-60
2023/06/22 08:28:25;;;;;;;9.50;6.53;;;;;;;26.34;67.82;100091.09;5070019;28;20445;-60
2023/06/22 08:30:50;;;;;;;13.13;6.93;;;;;;;26.35;68.25;100086.16;5068142;28;20215;-60
2023/06/22 08:33:16;;;;;;;8.33;6.70;;;;;;;26.33;67.56;100082.84;5067987;28;20518;-60
2023/06/22 08:35:41;;;;;;;9.57;6.87;;;;;;;26.32;67.58;100084.13;5068918;28;20179;-60
2023/06/22 08:38:08;;;;;;;9.00;6.67;;;;;;;26.32;67.89;100095.69;5080061;28;20194;-60
2023/06/22 08:40:34;;;;;;;10.47;7.77;;;;;;;26.33;68.05;100100.22;5072728;28;20183;-60
2023/06/22 08:42:59;;;;;;;12.37;6.90;;;;;;;26.33;68.04;100094.44;5066456;28;20451;-60
2023/06/22 08:45:24;;;;;;;14.93;5.97;;;;;;;26.33;68.27;100103.94;5088068;28;20214;-60
2023/06/22 08:47:50;;;;;;;9.13;7.10;;;;;;;26.33;68.10;100094.44;5067924;28;20217;-60
2023/06/22 08:50:15;;;;;;;13.13;7.57;;;;;;;26.32;67.61;100105.22;5088316;28;20884;-60
2023/06/22 08:52:41;;;;;;;13.77;6.50;;;;;;;26.33;67.75;100094.44;5088652;28;20179;-60
2023/06/22 08:55:07;;;;;;;16.60;7.50;;;;;;;26.34;67.67;100094.00;5074689;28;20179;-60
2023/06/22 08:57:32;;;;;;;14.20;7.37;;;;;;;26.35;68.14;100103.53;5068411;28;20178;-60
2023/06/22 08:59:58;;;;;;;14.60;7.80;;;;;;;26.34;68.48;100085.31;5071128;28;20813;-60
2023/06/22 09:02:30;;;;;;;11.73;7.47;;;;;;;26.32;67.80;100084.94;5071900;28;20619;-60
2023/06/22 09:04:57;;;;;;;18.30;7.60;;;;;;;26.33;68.32;100077.91;5067603;28;20441;-60
2023/06/22 09:07:24;;;;;;;10.03;7.07;;;;;;;26.33;68.41;100071.28;5057341;28;20456;-60
2023/06/22 09:09:50;;;;;;;13.27;6.70;;;;;;;26.32;68.40;100067.59;5087080;28;20431;-60
2023/06/22 09:12:16;;;;;;;10.60;7.90;;;;;;;26.33;68.39;100045.22;5087490;28;20956;-60
2023/06/22 09:14:41;;;;;;;7.73;6.50;;;;;;;26.32;68.51;100029.94;5086750;28;20495;-60
2023/06/22 09:17:06;;;;;;;12.83;7.40;;;;;;;26.33;67.82;100034.47;5084302;28;20673;-60
2023/06/22 09:19:32;;;;;;;10.17;6.20;;;;;;;26.34;67.92;100029.50;5079726;28;20175;-60
2023/06/22 09:21:58;;;;;;;10.20;6.17;;;;;;;26.34;68.00;100033.19;5070825;28;20650;-60
2023/06/22 09:24:23;;;;;;;10.50;6.67;;;;;;;26.35;67.75;100034.03;5068258;28;20198;-60
2023/06/22 09:26:49;;;;;;;10.13;6.90;;;;;;;26.33;68.49;100014.22;5077190;28;20174;-60
2023/06/22 09:29:14;;;;;;;11.43;7.60;;;;;;;26.33;68.14;100007.59;5073041;28;20187;-60
2023/06/22 09:31:39;;;;;;;9.23;6.93;;;;;;;26.33;67.94;99999.72;5087576;28;20182;-61
2023/06/22 09:34:05;;;;;;;11.23;6.87;;;;;;;26.31;68.37;99993.56;5084598;28;20235;-60
2023/06/22 09:36:30;;;;;;;8.77;6.93;;;;;;;26.32;67.95;99992.31;5087707;28;20600;-61
2023/06/22 09:38:58;;;;;;;11.17;6.97;;;;;;;26.33;67.90;99998.91;5080015;28;20182;-61
2023/06/22 09:41:24;;;;;;;12.40;6.70;;;;;;;26.33;67.79;100011.31;5073772;28;20532;-61
2023/06/22 09:43:49;;;;;;;9.33;6.47;;;;;;;26.34;67.92;100012.94;5067394;28;20433;-60
2023/06/22 09:46:17;;;;;;;10.83;6.47;;;;;;;26.36;67.69;100018.28;5081764;28;20183;-60
2023/06/22 09:48:43;;;;;;;10.80;6.83;;;;;;;26.34;68.06;100015.84;5086793;28;20181;-60
2023/06/22 09:51:08;;;;;;;11.80;7.70;;;;;;;26.33;68.27;100017.09;5082400;28;20420;-60
2023/06/22 09:53:34;;;;;;;9.37;6.97;;;;;;;26.34;67.82;100012.13;5068794;28;20194;-60
2023/06/22 09:56:01;;;;;;;11.47;7.40;;;;;;;26.34;67.72;100003.47;5081611;28;20265;-60
2023/06/22 09:58:26;;;;;;;11.40;7.90;;;;;;;26.33;68.25;99993.09;5076491;28;20487;-60
2023/06/22 10:00:52;;;;;;;11.43;7.27;;;;;;;26.33;67.95;99993.94;5067396;28;20422;-61
2023/06/22 10:03:18;;;;;;;10.33;7.37;;;;;;;26.33;68.30;99996.00;5067614;28;20593;-61
2023/06/22 10:05:43;;;;;;;9.50;6.20;;;;;;;26.32;67.80;99994.38;5051240;28;20461;-61
2023/06/22 10:08:10;;;;;;;12.60;6.93;;;;;;;26.31;67.59;99984.91;5067678;28;20479;-61
2023/06/22 10:10:35;;;;;;;10.93;6.77;;;;;;;26.32;67.72;99983.63;5060208;28;20186;-61
2023/06/22 10:13:07;;;;;;;10.80;6.77;;;;;;;26.32;67.82;99983.63;5083516;28;20432;-60
2023/06/22 10:15:32;;;;;;;11.77;7.23;;;;;;;26.33;67.50;99978.63;5087559;28;20232;-61
2023/06/22 10:17:58;;;;;;;10.50;6.43;;;;;;;26.33;68.39;99969.94;5087625;28;20454;-60
2023/06/22 10:20:23;;;;;;;13.30;7.40;;;;;;;26.33;68.43;99967.88;5087672;28;20175;-60
2023/06/22 10:22:49;;;;;;;9.93;6.73;;;;;;;26.32;67.85;99957.56;5070735;28;20183;-61
2023/06/22 10:25:14;;;;;;;10.00;6.77;;;;;;;26.33;67.91;99947.63;5067119;28;20248;-61
2023/06/22 10:27:40;;;;;;;11.27;7.00;;;;;;;26.35;68.11;99967.44;5086804;28;20245;-61
2023/06/22 10:30:07;;;;;;;11.00;6.70;;;;;;;26.34;67.75;99960.84;5084880;28;20646;-61
2023/06/22 10:32:33;;;;;;;8.87;6.70;;;;;;;26.34;67.69;99969.50;5086592;28;20175;-60
2023/06/22 10:34:58;;;;;;;13.13;7.70;;;;;;;26.35;67.89;99991.41;5086819;28;20412;-61
2023/06/22 10:37:23;;;;;;;14.83;6.93;;;;;;;26.35;67.60;99979.81;5082173;28;20175;-61
2023/06/22 10:39:49;;;;;;;11.10;6.70;;;;;;;26.35;68.35;99991.41;5086129;28;20170;-60
2023/06/22 10:42:14;;;;;;;8.97;7.20;;;;;;;26.35;67.84;99985.63;5083638;28;20727;-61
2023/06/22 10:44:41;;;;;;;9.20;6.80;;;;;;;26.35;68.31;99987.72;5085848;28;20699;-61
2023/06/22 10:47:06;;;;;;;10.60;7.37;;;;;;;26.35;67.93;99974.03;5085679;28;20169;-61
2023/06/22 10:49:32;;;;;;;9.33;6.37;;;;;;;26.33;67.71;99976.56;5082769;28;20975;-61
2023/06/22 10:51:57;;;;;;;12.30;7.20;;;;;;;26.35;67.78;99974.03;5084011;28;20551;-60
2023/06/22 10:54:23;;;;;;;9.87;6.23;;;;;;;26.34;67.89;99968.72;5078081;28;20179;-61
2023/06/22 10:56:48;;;;;;;9.77;7.10;;;;;;;26.35;67.77;99979.03;5069266;28;20186;-61
2023/06/22 10:59:13;;;;;;;9.90;6.80;;;;;;;26.35;68.35;99973.25;5070753;28;20222;-61
2023/06/22 11:01:39;;;;;;;9.60;7.07;;;;;;;26.35;67.77;99973.25;5070974;28;20151;-61
2023/06/22 11:04:04;;;;;;;7.83;6.00;;;;;;;26.35;67.74;99950.09;5074322;28;20191;-61
2023/06/22 11:06:30;;;;;;;9.30;6.27;;;;;;;26.35;67.93;99965.34;5070787;28;20199;-61
2023/06/22 11:08:55;;;;;;;10.63;7.30;;;;;;;26.36;67.57;99952.53;5070689;28;20281;-61
2023/06/22 11:11:20;;;;;;;7.60;6.00;;;;;;;26.37;68.18;99957.06;5074649;28;20341;-61
2023/06/22 11:13:46;;;;;;;12.20;7.80;;;;;;;26.39;67.88;99969.00;5073543;28;20500;-60
2023/06/22 11:16:11;;;;;;;14.93;7.00;;;;;;;26.38;67.79;99964.47;5080119;28;20174;-60
2023/06/22 11:18:37;;;;;;;11.67;6.87;;;;;;;26.38;67.85;99978.97;5089210;28;20539;-61
2023/06/22 11:21:02;;;;;;;13.90;7.70;;;;;;;26.39;67.73;99989.28;5090746;28;20674;-60